Terminal Aerodrome Forecast
Issued by NWS

Home | Current Version | Previous Version | Text Only | Print | Product List | Glossary On
Versions: 1 2 3 4 5 6 7 8 9 10 11 12 13 14 15 16 17 18 19 20 21 22 23 24 25 26 27 28 29 30 31 32 33 34
677
FTUS43 KLOT 212338
TAFMDW
TAF
KMDW 212338Z 2200/2306 03004KT 3SM BR VCSH SCT008 BKN019 BKN035
     FM220200 03004KT 3SM BR BKN008
     FM220400 35005KT 1SM BR OVC004
      TEMPO 2209/2213 1/2SM FG VV002
     FM221500 33007KT P6SM BKN006 OVC013
     FM221800 35007KT P6SM BKN015
     FM222100 02008KT P6SM BKN023
     FM222300 06008KT P6SM SCT035=

USA.gov is the U.S. government's official web portal to all federal, state and local government web resources and services.